Globe, Arizona
Current Conditions -  °F | °C
As of 6:47 AM on Thursday 30 Oct 2014 (Local Time) from KIWA Reporting Station
Few Clouds Few Clouds  
Wind Chill: 57°   Ceiling: Unl
Heat Index: 57°   Visibility: 45mi
Dew Point: 39°   Wind: 7mph
Humidity: 51%   Direction: 90°E
Pressure: 30.04"   Gusts: NA
Location:  33.4°N, 110.78°W
Report Text: KIWA 301347Z 09006KT 45SM FEW250 14/04 A3004
Loading
Personal Weather Stations






























Interactive Weather Map New forecast layout! Learn more

10-Day Weather Forecast

Advertisements
Track Severe Weather on mobile